(°C)
(°C)
-3°
-3°
-3°
-4°
-4°
-4°
-4°
SSW
SSW
SSW
SSW
SSW
SSW
SSW
(كم/سا)
15-31
15-32
15-32
16-33
16-33
17-33
17-33
(مم)
0
0
0.5
0.6
0.6
0.7
0.7
(%)
71
71
95
98
98
98
98

مستوى ارتفاع الشمس

/ -35.5°
sun-icon
UV 0
07:04
19:10
قمر المساء (231°)
20:34
11:52

متر ل55.27°شمال 86.11°شرق (UNEE)

الوقت الشروط درجة الحرارة/
نقطة الندى
رياح مجال رؤية حالة الطقس غيوم الضغط تغيير خام
VFR 2°C / -1°C 210º 10kt >10km - Broken Clouds 3300ft 1022 No Significant change UNEE 241800Z 21005MPS 9999 BKN033 02/M01 Q1022 R23/CLRD60 NOSIG RMK QFE743
VFR 3°C / -2°C 210º 10kt >10km - Broken Clouds 3300ft 1022 No Significant change UNEE 241730Z 21005MPS 9999 BKN033 03/M02 Q1022 R23/CLRD60 NOSIG RMK QFE744
VFR 2°C / -2°C 200º 8kt >10km - Overcast 3300ft 1023 No Significant change UNEE 241700Z 20004MPS 9999 OVC033 02/M02 Q1023 R23/CLRD60 NOSIG RMK QFE744
VFR 3°C / -2°C 210º 10kt >10km - Overcast 4000ft 1023 No Significant change UNEE 241630Z 21005MPS 9999 OVC040 03/M02 Q1023 R23/CLRD60 NOSIG RMK QFE744
VFR 3°C / -2°C 210º 6kt >10km - Overcast 4000ft 1023 No Significant change UNEE 241600Z 21003MPS 9999 OVC040 03/M02 Q1023 R23/CLRD60 NOSIG RMK QFE744
VFR 3°C / -2°C 200º 6kt >10km - Overcast 4300ft 1023 No Significant change UNEE 241530Z 20003MPS 9999 OVC043 03/M02 Q1023 R23/CLRD60 NOSIG RMK QFE744
VFR 3°C / -2°C 200º 6kt >10km - Overcast 4000ft 1023 No Significant change UNEE 241500Z 20003MPS 9999 OVC040 03/M02 Q1023 R23/CLRD60 NOSIG RMK QFE744
VFR 3°C / -2°C 210º 6kt >10km - Overcast 3300ft 1023 No Significant change UNEE 241430Z 21003MPS 9999 OVC033 03/M02 Q1023 R23/CLRD60 NOSIG RMK QFE744
VFR 3°C / -2°C 220º 6kt >10km - Overcast 3400ft 1023 No Significant change UNEE 241400Z 22003MPS 9999 OVC034 03/M02 Q1023 R23/CLRD60 NOSIG RMK QFE744
VFR 3°C / -2°C 230º 8kt >10km - Overcast 4700ft 1023 No Significant change UNEE 241330Z 23004MPS 9999 OVC047 03/M02 Q1023 R23/CLRD60 NOSIG RMK QFE744
VFR 2°C / -3°C 210º 4kt >10km - Clouds and Visibility OK 1023 No Significant change UNEE 241300Z 21002MPS CAVOK 02/M03 Q1023 R23/CLRD60 NOSIG RMK QFE744
VFR 3°C / -3°C 230º 6kt >10km - Clouds and Visibility OK 1023 No Significant change UNEE 241230Z 23003MPS CAVOK 03/M03 Q1023 R23/CLRD60 NOSIG RMK QFE744
VFR 3°C / -3°C 240º 8kt >10km - Clouds and Visibility OK 1023 No Significant change UNEE 241200Z 24004MPS CAVOK 03/M03 Q1023 R23/CLRD60 NOSIG RMK QFE744
VFR 3°C / -3°C 250º 6kt >10km - Broken Clouds 4000ft 1023 No Significant change UNEE 241130Z 25003MPS 9999 BKN040 03/M03 Q1023 R23/CLRD60 NOSIG RMK QFE744
VFR 3°C / -3°C 260º 8kt >10km - Broken Clouds 4000ft 1023 No Significant change UNEE 241100Z 26004MPS 9999 BKN040 03/M03 Q1023 R23/CLRD60 NOSIG RMK QFE744
MVFR 4°C / -3°C 250º 10kt >10km - Broken Clouds 3000ft 1022 No Significant change UNEE 241030Z 25005MPS 9999 BKN030 04/M03 Q1022 R23/CLRD60 NOSIG RMK QFE744
MVFR 4°C / -3°C 250º 12kt >10km - Broken Clouds 3000ft 1022 No Significant change UNEE 241000Z 25006MPS 9999 BKN030 04/M03 Q1022 R23/CLRD60 NOSIG RMK QFE744
MVFR 5°C / -2°C 250º 10kt >10km - Broken Clouds 3000ft 1022 No Significant change UNEE 240930Z 25005MPS 9999 BKN030 05/M02 Q1022 R23/CLRD60 NOSIG RMK QFE744
MVFR 5°C / -3°C 260º 12kt >10km - Broken Clouds 3000ft 1022 No Significant change UNEE 240900Z 26006MPS 9999 BKN030 05/M03 Q1022 R23/CLRD60 NOSIG RMK QFE744
MVFR 5°C / -1°C 250º 10kt >10km - Broken Clouds 3000ft 1022 No Significant change UNEE 240830Z 25005MPS 9999 BKN030 05/M01 Q1022 R23/CLRD60 NOSIG RMK QFE743
MVFR 5°C / 0°C 240º 6kt >10km - Broken Clouds 2700ft 1022 No Significant change UNEE 240800Z 24003MPS 9999 BKN027 05/00 Q1022 R23/CLRD60 NOSIG RMK QFE743
MVFR 4°C / 0°C 240º 10kt >10km - Broken Clouds 1000ft 1022 No Significant change UNEE 240730Z 24005MPS 9999 BKN010 BKN020CB 04/00 Q1022 R23/CLRD60 NOSIG RMK QFE743
IFR 4°C / 0°C 280º 6kt >10km - Broken Clouds 700ft 1022 No Significant change UNEE 240700Z 28003MPS 9999 BKN007 BKN017 04/M00 Q1022 R23/CLRD60 NOSIG RMK QFE743
IFR 4°C / 1°C 280º 10kt >10km - Broken Clouds 700ft 1022 No Significant change UNEE 240630Z 28005MPS 9999 BKN007 BKN017 04/01 Q1022 R23/CLRD60 NOSIG RMK QFE743

VFR

2°C / -1°C

[أكثر]
رياح 210º 10kt
مجال رؤية >10km
حالة الطقس -
غيوم Broken Clouds 3300ft
الضغط 1022
تغيير No Significant change
خام UNEE 241800Z 21005MPS 9999 BKN033 02/M01 Q1022 R23/CLRD60 NOSIG RMK QFE743

VFR

3°C / -2°C

[أكثر]
رياح 210º 10kt
مجال رؤية >10km
حالة الطقس -
غيوم Broken Clouds 3300ft
الضغط 1022
تغيير No Significant change
خام UNEE 241730Z 21005MPS 9999 BKN033 03/M02 Q1022 R23/CLRD60 NOSIG RMK QFE744

VFR

2°C / -2°C

[أكثر]
رياح 200º 8kt
مجال رؤية >10km
حالة الطقس -
غيوم Overcast 3300ft
الضغط 1023
تغيير No Significant change
خام UNEE 241700Z 20004MPS 9999 OVC033 02/M02 Q1023 R23/CLRD60 NOSIG RMK QFE744

VFR

3°C / -2°C

[أكثر]
رياح 210º 10kt
مجال رؤية >10km
حالة الطقس -
غيوم Overcast 4000ft
الضغط 1023
تغيير No Significant change
خام UNEE 241630Z 21005MPS 9999 OVC040 03/M02 Q1023 R23/CLRD60 NOSIG RMK QFE744

VFR

3°C / -2°C

[أكثر]
رياح 210º 6kt
مجال رؤية >10km
حالة الطقس -
غيوم Overcast 4000ft
الضغط 1023
تغيير No Significant change
خام UNEE 241600Z 21003MPS 9999 OVC040 03/M02 Q1023 R23/CLRD60 NOSIG RMK QFE744

VFR

3°C / -2°C

[أكثر]
رياح 200º 6kt
مجال رؤية >10km
حالة الطقس -
غيوم Overcast 4300ft
الضغط 1023
تغيير No Significant change
خام UNEE 241530Z 20003MPS 9999 OVC043 03/M02 Q1023 R23/CLRD60 NOSIG RMK QFE744

VFR

3°C / -2°C

[أكثر]
رياح 200º 6kt
مجال رؤية >10km
حالة الطقس -
غيوم Overcast 4000ft
الضغط 1023
تغيير No Significant change
خام UNEE 241500Z 20003MPS 9999 OVC040 03/M02 Q1023 R23/CLRD60 NOSIG RMK QFE744

VFR

3°C / -2°C

[أكثر]
رياح 210º 6kt
مجال رؤية >10km
حالة الطقس -
غيوم Overcast 3300ft
الضغط 1023
تغيير No Significant change
خام UNEE 241430Z 21003MPS 9999 OVC033 03/M02 Q1023 R23/CLRD60 NOSIG RMK QFE744

VFR

3°C / -2°C

[أكثر]
رياح 220º 6kt
مجال رؤية >10km
حالة الطقس -
غيوم Overcast 3400ft
الضغط 1023
تغيير No Significant change
خام UNEE 241400Z 22003MPS 9999 OVC034 03/M02 Q1023 R23/CLRD60 NOSIG RMK QFE744

VFR

3°C / -2°C

[أكثر]
رياح 230º 8kt
مجال رؤية >10km
حالة الطقس -
غيوم Overcast 4700ft
الضغط 1023
تغيير No Significant change
خام UNEE 241330Z 23004MPS 9999 OVC047 03/M02 Q1023 R23/CLRD60 NOSIG RMK QFE744

VFR

2°C / -3°C

[أكثر]
رياح 210º 4kt
مجال رؤية >10km
حالة الطقس -
غيوم Clouds and Visibility OK
الضغط 1023
تغيير No Significant change
خام UNEE 241300Z 21002MPS CAVOK 02/M03 Q1023 R23/CLRD60 NOSIG RMK QFE744

VFR

3°C / -3°C

[أكثر]
رياح 230º 6kt
مجال رؤية >10km
حالة الطقس -
غيوم Clouds and Visibility OK
الضغط 1023
تغيير No Significant change
خام UNEE 241230Z 23003MPS CAVOK 03/M03 Q1023 R23/CLRD60 NOSIG RMK QFE744

VFR

3°C / -3°C

[أكثر]
رياح 240º 8kt
مجال رؤية >10km
حالة الطقس -
غيوم Clouds and Visibility OK
الضغط 1023
تغيير No Significant change
خام UNEE 241200Z 24004MPS CAVOK 03/M03 Q1023 R23/CLRD60 NOSIG RMK QFE744

VFR

3°C / -3°C

[أكثر]
رياح 250º 6kt
مجال رؤية >10km
حالة الطقس -
غيوم Broken Clouds 4000ft
الضغط 1023
تغيير No Significant change
خام UNEE 241130Z 25003MPS 9999 BKN040 03/M03 Q1023 R23/CLRD60 NOSIG RMK QFE744

VFR

3°C / -3°C

[أكثر]
رياح 260º 8kt
مجال رؤية >10km
حالة الطقس -
غيوم Broken Clouds 4000ft
الضغط 1023
تغيير No Significant change
خام UNEE 241100Z 26004MPS 9999 BKN040 03/M03 Q1023 R23/CLRD60 NOSIG RMK QFE744

MVFR

4°C / -3°C

[أكثر]
رياح 250º 10kt
مجال رؤية >10km
حالة الطقس -
غيوم Broken Clouds 3000ft
الضغط 1022
تغيير No Significant change
خام UNEE 241030Z 25005MPS 9999 BKN030 04/M03 Q1022 R23/CLRD60 NOSIG RMK QFE744

MVFR

4°C / -3°C

[أكثر]
رياح 250º 12kt
مجال رؤية >10km
حالة الطقس -
غيوم Broken Clouds 3000ft
الضغط 1022
تغيير No Significant change
خام UNEE 241000Z 25006MPS 9999 BKN030 04/M03 Q1022 R23/CLRD60 NOSIG RMK QFE744

MVFR

5°C / -2°C

[أكثر]
رياح 250º 10kt
مجال رؤية >10km
حالة الطقس -
غيوم Broken Clouds 3000ft
الضغط 1022
تغيير No Significant change
خام UNEE 240930Z 25005MPS 9999 BKN030 05/M02 Q1022 R23/CLRD60 NOSIG RMK QFE744

MVFR

5°C / -3°C

[أكثر]
رياح 260º 12kt
مجال رؤية >10km
حالة الطقس -
غيوم Broken Clouds 3000ft
الضغط 1022
تغيير No Significant change
خام UNEE 240900Z 26006MPS 9999 BKN030 05/M03 Q1022 R23/CLRD60 NOSIG RMK QFE744

MVFR

5°C / -1°C

[أكثر]
رياح 250º 10kt
مجال رؤية >10km
حالة الطقس -
غيوم Broken Clouds 3000ft
الضغط 1022
تغيير No Significant change
خام UNEE 240830Z 25005MPS 9999 BKN030 05/M01 Q1022 R23/CLRD60 NOSIG RMK QFE743

MVFR

5°C / 0°C

[أكثر]
رياح 240º 6kt
مجال رؤية >10km
حالة الطقس -
غيوم Broken Clouds 2700ft
الضغط 1022
تغيير No Significant change
خام UNEE 240800Z 24003MPS 9999 BKN027 05/00 Q1022 R23/CLRD60 NOSIG RMK QFE743

MVFR

4°C / 0°C

[أكثر]
رياح 240º 10kt
مجال رؤية >10km
حالة الطقس -
غيوم Broken Clouds 1000ft
الضغط 1022
تغيير No Significant change
خام UNEE 240730Z 24005MPS 9999 BKN010 BKN020CB 04/00 Q1022 R23/CLRD60 NOSIG RMK QFE743

IFR

4°C / 0°C

[أكثر]
رياح 280º 6kt
مجال رؤية >10km
حالة الطقس -
غيوم Broken Clouds 700ft
الضغط 1022
تغيير No Significant change
خام UNEE 240700Z 28003MPS 9999 BKN007 BKN017 04/M00 Q1022 R23/CLRD60 NOSIG RMK QFE743

IFR

4°C / 1°C

[أكثر]
رياح 280º 10kt
مجال رؤية >10km
حالة الطقس -
غيوم Broken Clouds 700ft
الضغط 1022
تغيير No Significant change
خام UNEE 240630Z 28005MPS 9999 BKN007 BKN017 04/01 Q1022 R23/CLRD60 NOSIG RMK QFE743

انقر ل55.27°شمال 86.11°شرق (UNEE)

From till


From till Wind 180º 10kt. Gust 23kt. Visibility 8000m. Light Showers Rain . Broken Clouds 2000ft.
Temporarly from till Light Showers Rain Light Showers Snow . Broken Clouds 200ft. Broken Clouds 1600ft.
Becoming from till Wind 220º 14kt. Gust 29kt. Visibility 8000m. Light Showers Rain . Broken Clouds 2000ft.
Becoming from till Wind 190º 6kt. Gust 16kt. Visibility 8000m. Light Showers Rain . Broken Clouds 2000ft.

خام: TAF UNEE 241700Z 2418/2518 18005G12MPS 8000 -SHRA BKN020CB TEMPO 2418/2506 -SHRASN BKN002 BKN016CB BECMG 2500/2502 22007G15MPS BECMG 2510/2513 19003G08MPS

صور الأقمار الصناعية الملتقطة و الأمطار حالياً ل55.27°شمال 86.11°شرق

المؤشر يدل على موقع 55.27°شمال 86.11°شرق. [أكثر]

تجمع صورة الأقمار الصناعية في الوقت الفعلي بين الضوء المرئي أثناء النهار والأشعة تحت الحمراء أثناء الليل. لا تبدو الصورة مظلمة ليلاً، لأن الأشعة تحت الحمراء يمكنها الكشف عن الاختلافات في درجة الحرارة. لسوء الحظ ، يصعب التمييز بين السحب المنخفضة والضباب ودرجات حرارة الأرض ، وبالتالي يمكن أن تكون الصور غير مرئية تقريبًا أثناء الليل. يتم تحديث صور الأقمار الصناعية Meteosat الخاصة بأوروبا في الوقت الفعلي كل 5 دقائق، بينما يتم تحديث صور GOES-16 / GOES-17 (أمريكا الشمالية والجنوبية) و Himawari (آسيا) كل 10 دقائق.

حقوق النسخ 2021 EUMETSAT / meteoblue. / حقوق النسخ 2021 meteoblue

رادار وهطول الأمطار التنبؤ الآني ل55.27°شمال 86.11°شرق

رذاذ
ضوء
معتدل
ثقيل
ثقيل جدا
وابل

مؤشر المكان يشير الى 55.27°شمال 86.11°شرق. تظهر في هذه الرسوم المتحركة هطول الامطار بالرادار للساعة الماضية, و توقعات 1h. رذاذ أو تساقط ثلوج خفيف قد يكون غير مرئي للرادار. كثافة هطول الأمطار مرمزة بالألوان وتتراوح من الأزرق الفاتح إلى البرتقالي.